createdAt,value
2022-12-11T18:32:11.125Z,20.63
2022-12-11T18:37:10.880Z,19.03
2022-12-11T18:42:32.102Z,19.13
2022-12-11T18:47:10.880Z,18.43
2022-12-11T18:52:10.908Z,19.04
2022-12-11T18:57:10.931Z,19.02
2022-12-11T19:02:10.954Z,18.51
2022-12-11T19:07:10.902Z,17.19
2022-12-11T19:12:10.912Z,16.5
2022-12-11T19:17:10.901Z,15.69
2022-12-11T19:22:10.932Z,15.93
2022-12-11T19:27:13.589Z,16.27
2022-12-11T19:32:10.950Z,16.21
2022-12-11T19:37:10.906Z,15.44
2022-12-11T19:42:10.930Z,15.9
2022-12-11T19:47:10.949Z,15.28
2022-12-11T19:52:10.902Z,15.01
2022-12-11T19:57:10.922Z,15.1
2022-12-11T20:02:10.964Z,14.9
2022-12-11T20:07:10.948Z,15.75
2022-12-11T20:12:10.918Z,15.61
2022-12-11T20:17:13.245Z,15.98
2022-12-11T20:22:10.919Z,16.17
2022-12-11T20:27:10.922Z,15.87
2022-12-11T20:32:11.012Z,16.59
2022-12-11T20:37:10.927Z,16.92
2022-12-11T20:42:10.962Z,16.9
2022-12-11T20:47:10.957Z,17.07
2022-12-11T20:52:10.922Z,17
2022-12-11T20:57:10.942Z,16.68
2022-12-11T21:02:10.978Z,17.55
2022-12-11T21:07:10.935Z,19.02
2022-12-11T21:12:10.941Z,18.83
2022-12-11T21:17:10.931Z,19.19
2022-12-11T21:22:10.973Z,19.53
2022-12-11T21:27:10.959Z,19.73
2022-12-11T21:32:10.946Z,19.65
2022-12-11T21:37:10.975Z,20.03
2022-12-11T21:42:10.951Z,20.25
2022-12-11T21:47:10.948Z,20.47
2022-12-11T21:52:10.985Z,20.68
2022-12-11T21:57:10.939Z,21.2
2022-12-11T22:02:11.014Z,20.8
2022-12-11T22:07:10.986Z,21.85
2022-12-11T22:12:10.986Z,21.31
2022-12-11T22:17:10.985Z,21.53
2022-12-11T22:22:11.010Z,22.98
2022-12-11T22:27:10.955Z,20.61
2022-12-11T22:32:11.004Z,20.76
2022-12-11T22:37:11.001Z,20.47
2022-12-11T22:42:10.956Z,20.62
2022-12-11T22:47:10.974Z,20.49
2022-12-11T22:52:10.984Z,20.65
2022-12-11T22:57:10.966Z,20.32
2022-12-11T23:02:11.022Z,21.02
2022-12-11T23:07:10.981Z,21.55
2022-12-11T23:12:10.969Z,21.85
2022-12-11T23:17:11.050Z,21.82
2022-12-11T23:22:10.971Z,22.79
2022-12-11T23:27:11.004Z,23.4
2022-12-11T23:32:10.969Z,23.74
2022-12-11T23:37:10.969Z,24.76
2022-12-11T23:42:10.983Z,24.92
2022-12-11T23:47:10.980Z,25.18
2022-12-11T23:52:11.002Z,24.92
2022-12-11T23:57:10.988Z,24.89
